sensor_id;sensor_type;location;lat;lon;timestamp;P1;durP1;ratioP1;P2;durP2;ratioP2
51915;SDS011;37942;53.218;6.548;2022-09-17T00:01:37;24.15;;;4.53;;
51915;SDS011;37942;53.218;6.548;2022-09-17T00:04:03;24.13;;;4.70;;
51915;SDS011;37942;53.218;6.548;2022-09-17T00:06:31;22.70;;;4.63;;
51915;SDS011;37942;53.218;6.548;2022-09-17T00:08:57;23.58;;;4.75;;
51915;SDS011;37942;53.218;6.548;2022-09-17T00:11:25;23.33;;;4.68;;
51915;SDS011;37942;53.218;6.548;2022-09-17T00:13:52;20.05;;;3.72;;
51915;SDS011;37942;53.218;6.548;2022-09-17T00:18:44;21.23;;;3.63;;
51915;SDS011;37942;53.218;6.548;2022-09-17T00:21:16;18.15;;;4.43;;
51915;SDS011;37942;53.218;6.548;2022-09-17T00:23:43;24.08;;;4.68;;
51915;SDS011;37942;53.218;6.548;2022-09-17T00:26:09;23.73;;;4.25;;
51915;SDS011;37942;53.218;6.548;2022-09-17T00:28:35;22.45;;;4.45;;
51915;SDS011;37942;53.218;6.548;2022-09-17T00:31:05;22.55;;;4.53;;
51915;SDS011;37942;53.218;6.548;2022-09-17T00:33:31;22.48;;;4.22;;
51915;SDS011;37942;53.218;6.548;2022-09-17T00:35:58;22.67;;;4.38;;
51915;SDS011;37942;53.218;6.548;2022-09-17T00:38:24;20.58;;;5.25;;
51915;SDS011;37942;53.218;6.548;2022-09-17T00:40:50;23.25;;;4.28;;
51915;SDS011;37942;53.218;6.548;2022-09-17T00:43:32;25.20;;;4.70;;
51915;SDS011;37942;53.218;6.548;2022-09-17T00:45:59;28.17;;;4.72;;
51915;SDS011;37942;53.218;6.548;2022-09-17T00:48:25;25.88;;;5.13;;
51915;SDS011;37942;53.218;6.548;2022-09-17T00:50:53;30.70;;;5.88;;
51915;SDS011;37942;53.218;6.548;2022-09-17T00:53:20;25.65;;;5.72;;
51915;SDS011;37942;53.218;6.548;2022-09-17T00:55:58;24.85;;;5.32;;
51915;SDS011;37942;53.218;6.548;2022-09-17T00:58:26;32.22;;;5.50;;
51915;SDS011;37942;53.218;6.548;2022-09-17T01:03:19;24.77;;;5.22;;
51915;SDS011;37942;53.218;6.548;2022-09-17T01:05:48;28.05;;;5.78;;
51915;SDS011;37942;53.218;6.548;2022-09-17T01:08:49;26.75;;;5.00;;
51915;SDS011;37942;53.218;6.548;2022-09-17T01:16:14;25.38;;;4.55;;
51915;SDS011;37942;53.218;6.548;2022-09-17T01:21:15;28.10;;;5.57;;
51915;SDS011;37942;53.218;6.548;2022-09-17T01:36:25;30.05;;;4.90;;
51915;SDS011;37942;53.218;6.548;2022-09-17T01:41:47;24.08;;;5.03;;
51915;SDS011;37942;53.218;6.548;2022-09-17T01:44:31;28.83;;;5.60;;
51915;SDS011;37942;53.218;6.548;2022-09-17T01:47:04;33.03;;;6.30;;
51915;SDS011;37942;53.218;6.548;2022-09-17T01:49:31;26.58;;;5.38;;
51915;SDS011;37942;53.218;6.548;2022-09-17T01:52:00;28.67;;;5.55;;
51915;SDS011;37942;53.218;6.548;2022-09-17T01:54:28;31.00;;;5.53;;
51915;SDS011;37942;53.218;6.548;2022-09-17T01:57:00;26.45;;;5.00;;
51915;SDS011;37942;53.218;6.548;2022-09-17T02:02:12;23.40;;;5.15;;
51915;SDS011;37942;53.218;6.548;2022-09-17T02:04:43;27.23;;;5.25;;
51915;SDS011;37942;53.218;6.548;2022-09-17T02:07:13;26.45;;;5.53;;
51915;SDS011;37942;53.218;6.548;2022-09-17T02:09:45;32.05;;;5.40;;
51915;SDS011;37942;53.218;6.548;2022-09-17T02:12:14;29.35;;;4.32;;
51915;SDS011;37942;53.218;6.548;2022-09-17T02:14:46;26.85;;;5.32;;
51915;SDS011;37942;53.218;6.548;2022-09-17T02:17:30;26.77;;;5.22;;
51915;SDS011;37942;53.218;6.548;2022-09-17T02:19:57;24.05;;;4.82;;
51915;SDS011;37942;53.218;6.548;2022-09-17T02:25:27;22.52;;;4.30;;
51915;SDS011;37942;53.218;6.548;2022-09-17T02:30:31;22.92;;;4.75;;
51915;SDS011;37942;53.218;6.548;2022-09-17T02:32:57;24.50;;;3.85;;
51915;SDS011;37942;53.218;6.548;2022-09-17T02:35:24;21.55;;;4.68;;
51915;SDS011;37942;53.218;6.548;2022-09-17T02:37:50;27.83;;;5.32;;
51915;SDS011;37942;53.218;6.548;2022-09-17T02:40:17;28.90;;;4.50;;
51915;SDS011;37942;53.218;6.548;2022-09-17T02:45:53;19.65;;;3.97;;
51915;SDS011;37942;53.218;6.548;2022-09-17T02:48:04;23.50;;;4.30;;
51915;SDS011;37942;53.218;6.548;2022-09-17T02:53:04;24.50;;;4.70;;
51915;SDS011;37942;53.218;6.548;2022-09-17T02:55:38;28.48;;;5.30;;
51915;SDS011;37942;53.218;6.548;2022-09-17T03:00:36;19.65;;;4.22;;
51915;SDS011;37942;53.218;6.548;2022-09-17T03:05:29;21.88;;;4.75;;
51915;SDS011;37942;53.218;6.548;2022-09-17T03:07:56;25.98;;;5.10;;
51915;SDS011;37942;53.218;6.548;2022-09-17T03:10:23;28.95;;;5.22;;
51915;SDS011;37942;53.218;6.548;2022-09-17T03:12:54;22.42;;;4.53;;
51915;SDS011;37942;53.218;6.548;2022-09-17T03:15:20;26.90;;;4.78;;
51915;SDS011;37942;53.218;6.548;2022-09-17T03:17:46;25.15;;;4.25;;
51915;SDS011;37942;53.218;6.548;2022-09-17T03:20:13;24.95;;;4.60;;
51915;SDS011;37942;53.218;6.548;2022-09-17T03:22:40;23.15;;;4.60;;
51915;SDS011;37942;53.218;6.548;2022-09-17T03:27:32;24.45;;;4.90;;
51915;SDS011;37942;53.218;6.548;2022-09-17T03:29:58;21.70;;;4.40;;
51915;SDS011;37942;53.218;6.548;2022-09-17T03:32:24;20.98;;;3.97;;
51915;SDS011;37942;53.218;6.548;2022-09-17T03:34:50;18.25;;;4.35;;
51915;SDS011;37942;53.218;6.548;2022-09-17T03:37:18;17.80;;;4.13;;
51915;SDS011;37942;53.218;6.548;2022-09-17T03:39:45;19.05;;;4.03;;
51915;SDS011;37942;53.218;6.548;2022-09-17T03:42:11;23.17;;;5.00;;
51915;SDS011;37942;53.218;6.548;2022-09-17T03:44:37;17.77;;;4.07;;
51915;SDS011;37942;53.218;6.548;2022-09-17T03:47:03;22.42;;;4.65;;
51915;SDS011;37942;53.218;6.548;2022-09-17T03:49:29;27.58;;;4.43;;
51915;SDS011;37942;53.218;6.548;2022-09-17T03:51:55;21.83;;;4.47;;
51915;SDS011;37942;53.218;6.548;2022-09-17T03:54:21;23.10;;;4.40;;
51915;SDS011;37942;53.218;6.548;2022-09-17T03:56:48;22.63;;;4.65;;
51915;SDS011;37942;53.218;6.548;2022-09-17T03:59:14;25.08;;;5.07;;
51915;SDS011;37942;53.218;6.548;2022-09-17T04:01:40;22.75;;;4.38;;
51915;SDS011;37942;53.218;6.548;2022-09-17T04:04:06;22.70;;;4.50;;
51915;SDS011;37942;53.218;6.548;2022-09-17T04:06:32;24.70;;;4.47;;
51915;SDS011;37942;53.218;6.548;2022-09-17T04:08:58;20.83;;;4.50;;
51915;SDS011;37942;53.218;6.548;2022-09-17T04:11:25;24.60;;;4.95;;
51915;SDS011;37942;53.218;6.548;2022-09-17T04:16:17;22.55;;;3.80;;
51915;SDS011;37942;53.218;6.548;2022-09-17T04:18:43;23.85;;;4.32;;
51915;SDS011;37942;53.218;6.548;2022-09-17T04:21:09;19.40;;;3.80;;
51915;SDS011;37942;53.218;6.548;2022-09-17T04:23:35;20.33;;;4.05;;
51915;SDS011;37942;53.218;6.548;2022-09-17T04:26:01;18.08;;;3.70;;
51915;SDS011;37942;53.218;6.548;2022-09-17T04:28:28;18.70;;;3.58;;
51915;SDS011;37942;53.218;6.548;2022-09-17T04:30:54;24.20;;;4.22;;
51915;SDS011;37942;53.218;6.548;2022-09-17T04:33:21;25.58;;;4.35;;
51915;SDS011;37942;53.218;6.548;2022-09-17T04:35:47;21.33;;;3.78;;
51915;SDS011;37942;53.218;6.548;2022-09-17T04:38:14;21.80;;;3.88;;
51915;SDS011;37942;53.218;6.548;2022-09-17T04:40:42;20.83;;;4.10;;
51915;SDS011;37942;53.218;6.548;2022-09-17T04:45:35;26.38;;;4.50;;
51915;SDS011;37942;53.218;6.548;2022-09-17T04:48:01;21.80;;;4.13;;
51915;SDS011;37942;53.218;6.548;2022-09-17T04:52:54;20.13;;;3.92;;
51915;SDS011;37942;53.218;6.548;2022-09-17T04:55:20;22.75;;;3.95;;
51915;SDS011;37942;53.218;6.548;2022-09-17T04:57:50;26.15;;;4.22;;
51915;SDS011;37942;53.218;6.548;2022-09-17T05:00:16;21.77;;;4.18;;
51915;SDS011;37942;53.218;6.548;2022-09-17T05:02:44;22.45;;;4.25;;
51915;SDS011;37942;53.218;6.548;2022-09-17T05:05:10;21.33;;;4.45;;
51915;SDS011;37942;53.218;6.548;2022-09-17T05:10:03;21.95;;;4.32;;
51915;SDS011;37942;53.218;6.548;2022-09-17T05:12:29;24.25;;;3.92;;
51915;SDS011;37942;53.218;6.548;2022-09-17T05:14:55;22.73;;;4.10;;
51915;SDS011;37942;53.218;6.548;2022-09-17T05:17:21;17.35;;;3.40;;
51915;SDS011;37942;53.218;6.548;2022-09-17T05:19:47;21.77;;;3.90;;
51915;SDS011;37942;53.218;6.548;2022-09-17T05:22:13;17.55;;;3.67;;
51915;SDS011;37942;53.218;6.548;2022-09-17T05:24:40;30.65;;;4.13;;
51915;SDS011;37942;53.218;6.548;2022-09-17T05:27:07;21.50;;;4.20;;
51915;SDS011;37942;53.218;6.548;2022-09-17T05:29:33;21.02;;;4.53;;
51915;SDS011;37942;53.218;6.548;2022-09-17T05:32:00;18.48;;;3.67;;
51915;SDS011;37942;53.218;6.548;2022-09-17T05:34:27;18.70;;;4.20;;
51915;SDS011;37942;53.218;6.548;2022-09-17T05:36:53;22.30;;;4.03;;
51915;SDS011;37942;53.218;6.548;2022-09-17T05:39:19;20.48;;;3.88;;
51915;SDS011;37942;53.218;6.548;2022-09-17T05:41:52;20.80;;;4.03;;
51915;SDS011;37942;53.218;6.548;2022-09-17T05:44:18;23.27;;;4.53;;
51915;SDS011;37942;53.218;6.548;2022-09-17T05:46:45;18.95;;;3.92;;
51915;SDS011;37942;53.218;6.548;2022-09-17T05:51:37;20.02;;;4.00;;
51915;SDS011;37942;53.218;6.548;2022-09-17T05:54:03;19.60;;;3.47;;
51915;SDS011;37942;53.218;6.548;2022-09-17T05:56:29;27.42;;;5.07;;
51915;SDS011;37942;53.218;6.548;2022-09-17T05:58:56;26.42;;;4.93;;
51915;SDS011;37942;53.218;6.548;2022-09-17T06:01:22;27.70;;;5.30;;
51915;SDS011;37942;53.218;6.548;2022-09-17T06:03:48;29.85;;;4.80;;
51915;SDS011;37942;53.218;6.548;2022-09-17T06:06:14;23.33;;;4.18;;
51915;SDS011;37942;53.218;6.548;2022-09-17T06:08:40;23.95;;;4.13;;
51915;SDS011;37942;53.218;6.548;2022-09-17T06:11:07;17.98;;;3.40;;
51915;SDS011;37942;53.218;6.548;2022-09-17T06:13:33;14.15;;;3.20;;
51915;SDS011;37942;53.218;6.548;2022-09-17T06:15:59;18.33;;;3.40;;
51915;SDS011;37942;53.218;6.548;2022-09-17T06:18:29;19.52;;;3.40;;
51915;SDS011;37942;53.218;6.548;2022-09-17T06:20:57;22.55;;;3.80;;
51915;SDS011;37942;53.218;6.548;2022-09-17T06:23:27;20.65;;;4.38;;
51915;SDS011;37942;53.218;6.548;2022-09-17T06:25:54;16.40;;;3.33;;
51915;SDS011;37942;53.218;6.548;2022-09-17T06:28:20;18.67;;;3.95;;
51915;SDS011;37942;53.218;6.548;2022-09-17T06:30:50;18.42;;;3.60;;
51915;SDS011;37942;53.218;6.548;2022-09-17T06:33:21;23.73;;;3.80;;
51915;SDS011;37942;53.218;6.548;2022-09-17T06:38:13;22.27;;;3.63;;
51915;SDS011;37942;53.218;6.548;2022-09-17T06:40:39;17.38;;;3.20;;
51915;SDS011;37942;53.218;6.548;2022-09-17T06:43:05;17.50;;;3.60;;
51915;SDS011;37942;53.218;6.548;2022-09-17T06:45:31;19.10;;;3.47;;
51915;SDS011;37942;53.218;6.548;2022-09-17T06:47:57;16.00;;;3.03;;
51915;SDS011;37942;53.218;6.548;2022-09-17T06:50:28;21.98;;;3.83;;
51915;SDS011;37942;53.218;6.548;2022-09-17T06:52:55;21.63;;;3.65;;
51915;SDS011;37942;53.218;6.548;2022-09-17T06:55:21;20.55;;;3.00;;
51915;SDS011;37942;53.218;6.548;2022-09-17T06:57:47;15.48;;;2.90;;
51915;SDS011;37942;53.218;6.548;2022-09-17T07:00:13;23.88;;;4.53;;
51915;SDS011;37942;53.218;6.548;2022-09-17T07:02:40;18.77;;;3.38;;
51915;SDS011;37942;53.218;6.548;2022-09-17T07:05:06;22.73;;;3.92;;
51915;SDS011;37942;53.218;6.548;2022-09-17T07:07:32;17.83;;;3.47;;
51915;SDS011;37942;53.218;6.548;2022-09-17T07:10:01;19.58;;;3.90;;
51915;SDS011;37942;53.218;6.548;2022-09-17T07:12:27;19.85;;;3.83;;
51915;SDS011;37942;53.218;6.548;2022-09-17T07:14:53;18.15;;;3.33;;
51915;SDS011;37942;53.218;6.548;2022-09-17T07:17:19;21.55;;;3.38;;
51915;SDS011;37942;53.218;6.548;2022-09-17T07:19:45;20.30;;;3.67;;
51915;SDS011;37942;53.218;6.548;2022-09-17T07:22:17;16.17;;;3.08;;
51915;SDS011;37942;53.218;6.548;2022-09-17T07:24:44;22.25;;;3.72;;
51915;SDS011;37942;53.218;6.548;2022-09-17T07:27:10;20.80;;;3.40;;
51915;SDS011;37942;53.218;6.548;2022-09-17T07:29:36;19.20;;;3.83;;
51915;SDS011;37942;53.218;6.548;2022-09-17T07:32:02;15.07;;;3.55;;
51915;SDS011;37942;53.218;6.548;2022-09-17T07:34:29;24.15;;;4.22;;
51915;SDS011;37942;53.218;6.548;2022-09-17T07:36:55;22.60;;;4.43;;
51915;SDS011;37942;53.218;6.548;2022-09-17T07:39:21;19.52;;;3.70;;
51915;SDS011;37942;53.218;6.548;2022-09-17T07:41:47;19.40;;;3.75;;
51915;SDS011;37942;53.218;6.548;2022-09-17T07:44:13;14.70;;;3.13;;
51915;SDS011;37942;53.218;6.548;2022-09-17T07:46:39;14.07;;;3.05;;
51915;SDS011;37942;53.218;6.548;2022-09-17T07:49:05;15.23;;;3.03;;
51915;SDS011;37942;53.218;6.548;2022-09-17T07:51:31;16.10;;;3.28;;
51915;SDS011;37942;53.218;6.548;2022-09-17T07:53:58;16.15;;;3.42;;
51915;SDS011;37942;53.218;6.548;2022-09-17T07:56:25;17.48;;;3.22;;
51915;SDS011;37942;53.218;6.548;2022-09-17T07:58:51;20.15;;;3.58;;
51915;SDS011;37942;53.218;6.548;2022-09-17T08:03:49;20.50;;;4.10;;
51915;SDS011;37942;53.218;6.548;2022-09-17T08:06:16;15.27;;;2.95;;
51915;SDS011;37942;53.218;6.548;2022-09-17T08:08:43;18.67;;;3.22;;
51915;SDS011;37942;53.218;6.548;2022-09-17T08:11:11;15.07;;;2.90;;
51915;SDS011;37942;53.218;6.548;2022-09-17T08:13:37;12.85;;;2.60;;
51915;SDS011;37942;53.218;6.548;2022-09-17T08:16:04;14.65;;;2.80;;
51915;SDS011;37942;53.218;6.548;2022-09-17T08:18:31;22.50;;;3.55;;
51915;SDS011;37942;53.218;6.548;2022-09-17T08:20:58;20.90;;;3.63;;
51915;SDS011;37942;53.218;6.548;2022-09-17T08:23:27;22.63;;;4.13;;
51915;SDS011;37942;53.218;6.548;2022-09-17T08:25:57;19.95;;;3.95;;
51915;SDS011;37942;53.218;6.548;2022-09-17T08:28:24;23.00;;;5.07;;
51915;SDS011;37942;53.218;6.548;2022-09-17T08:30:52;23.45;;;3.97;;
51915;SDS011;37942;53.218;6.548;2022-09-17T08:33:18;20.42;;;3.85;;
51915;SDS011;37942;53.218;6.548;2022-09-17T08:35:52;18.35;;;3.97;;
51915;SDS011;37942;53.218;6.548;2022-09-17T08:38:18;19.33;;;3.20;;
51915;SDS011;37942;53.218;6.548;2022-09-17T08:43:14;15.32;;;3.05;;
51915;SDS011;37942;53.218;6.548;2022-09-17T08:45:42;16.23;;;2.70;;
51915;SDS011;37942;53.218;6.548;2022-09-17T08:48:08;17.42;;;3.28;;
51915;SDS011;37942;53.218;6.548;2022-09-17T08:50:38;17.48;;;3.45;;
51915;SDS011;37942;53.218;6.548;2022-09-17T08:58:25;9.32;;;2.30;;
51915;SDS011;37942;53.218;6.548;2022-09-17T09:00:59;10.60;;;2.42;;
51915;SDS011;37942;53.218;6.548;2022-09-17T09:06:12;11.38;;;2.42;;
51915;SDS011;37942;53.218;6.548;2022-09-17T09:08:44;13.05;;;2.63;;
51915;SDS011;37942;53.218;6.548;2022-09-17T09:11:22;17.70;;;3.38;;
51915;SDS011;37942;53.218;6.548;2022-09-17T09:13:52;15.98;;;3.17;;
51915;SDS011;37942;53.218;6.548;2022-09-17T09:16:21;16.00;;;3.22;;
51915;SDS011;37942;53.218;6.548;2022-09-17T09:18:50;20.52;;;3.05;;
51915;SDS011;37942;53.218;6.548;2022-09-17T09:23:53;16.08;;;3.47;;
51915;SDS011;37942;53.218;6.548;2022-09-17T09:26:30;13.57;;;3.13;;
51915;SDS011;37942;53.218;6.548;2022-09-17T09:29:02;16.00;;;3.65;;
51915;SDS011;37942;53.218;6.548;2022-09-17T09:34:13;13.55;;;2.70;;
51915;SDS011;37942;53.218;6.548;2022-09-17T09:36:43;15.30;;;2.85;;
51915;SDS011;37942;53.218;6.548;2022-09-17T09:39:23;17.70;;;3.08;;
51915;SDS011;37942;53.218;6.548;2022-09-17T09:41:54;18.50;;;3.72;;
51915;SDS011;37942;53.218;6.548;2022-09-17T09:44:23;15.15;;;2.83;;
51915;SDS011;37942;53.218;6.548;2022-09-17T09:49:51;11.25;;;2.75;;
51915;SDS011;37942;53.218;6.548;2022-09-17T09:52:26;14.80;;;3.05;;
51915;SDS011;37942;53.218;6.548;2022-09-17T09:57:48;16.85;;;2.88;;
51915;SDS011;37942;53.218;6.548;2022-09-17T10:00:20;18.40;;;3.28;;
51915;SDS011;37942;53.218;6.548;2022-09-17T10:02:48;17.98;;;3.55;;
51915;SDS011;37942;53.218;6.548;2022-09-17T10:05:17;19.98;;;4.22;;
51915;SDS011;37942;53.218;6.548;2022-09-17T10:07:43;19.55;;;3.75;;
51915;SDS011;37942;53.218;6.548;2022-09-17T10:10:10;20.88;;;4.50;;
51915;SDS011;37942;53.218;6.548;2022-09-17T10:12:36;24.42;;;5.38;;
51915;SDS011;37942;53.218;6.548;2022-09-17T10:15:22;19.63;;;3.80;;
51915;SDS011;37942;53.218;6.548;2022-09-17T10:17:49;18.33;;;3.47;;
51915;SDS011;37942;53.218;6.548;2022-09-17T10:20:17;24.23;;;4.32;;
51915;SDS011;37942;53.218;6.548;2022-09-17T10:22:44;20.10;;;3.70;;
51915;SDS011;37942;53.218;6.548;2022-09-17T10:25:30;23.25;;;4.07;;
51915;SDS011;37942;53.218;6.548;2022-09-17T10:27:57;17.13;;;3.88;;
51915;SDS011;37942;53.218;6.548;2022-09-17T10:30:24;20.25;;;3.30;;
51915;SDS011;37942;53.218;6.548;2022-09-17T10:35:35;17.88;;;3.78;;
51915;SDS011;37942;53.218;6.548;2022-09-17T10:38:01;21.88;;;3.72;;
51915;SDS011;37942;53.218;6.548;2022-09-17T10:40:29;21.83;;;3.42;;
51915;SDS011;37942;53.218;6.548;2022-09-17T10:45:39;23.70;;;3.90;;
51915;SDS011;37942;53.218;6.548;2022-09-17T10:48:11;21.95;;;4.03;;
51915;SDS011;37942;53.218;6.548;2022-09-17T10:50:38;25.23;;;4.63;;
51915;SDS011;37942;53.218;6.548;2022-09-17T10:53:06;21.33;;;3.83;;
51915;SDS011;37942;53.218;6.548;2022-09-17T10:56:21;19.90;;;4.30;;
51915;SDS011;37942;53.218;6.548;2022-09-17T10:58:42;20.70;;;4.07;;
51915;SDS011;37942;53.218;6.548;2022-09-17T11:06:43;19.55;;;3.35;;
51915;SDS011;37942;53.218;6.548;2022-09-17T11:19:36;17.48;;;3.10;;
51915;SDS011;37942;53.218;6.548;2022-09-17T11:32:35;14.95;;;3.05;;
51915;SDS011;37942;53.218;6.548;2022-09-17T11:35:14;13.65;;;3.05;;
51915;SDS011;37942;53.218;6.548;2022-09-17T11:42:55;17.23;;;3.90;;
51915;SDS011;37942;53.218;6.548;2022-09-17T11:45:27;15.50;;;2.90;;
51915;SDS011;37942;53.218;6.548;2022-09-17T11:47:59;15.55;;;3.38;;
51915;SDS011;37942;53.218;6.548;2022-09-17T11:50:32;18.60;;;3.55;;
51915;SDS011;37942;53.218;6.548;2022-09-17T11:53:06;16.27;;;3.85;;
51915;SDS011;37942;53.218;6.548;2022-09-17T11:55:38;18.75;;;4.20;;
51915;SDS011;37942;53.218;6.548;2022-09-17T11:58:13;18.60;;;3.45;;
51915;SDS011;37942;53.218;6.548;2022-09-17T12:00:43;19.17;;;3.65;;
51915;SDS011;37942;53.218;6.548;2022-09-17T12:03:55;20.73;;;4.00;;
51915;SDS011;37942;53.218;6.548;2022-09-17T12:06:04;19.02;;;2.90;;
51915;SDS011;37942;53.218;6.548;2022-09-17T12:11:00;18.95;;;3.55;;
51915;SDS011;37942;53.218;6.548;2022-09-17T12:21:18;20.55;;;4.00;;
51915;SDS011;37942;53.218;6.548;2022-09-17T12:23:49;18.45;;;3.50;;
51915;SDS011;37942;53.218;6.548;2022-09-17T12:28:52;18.50;;;3.30;;
51915;SDS011;37942;53.218;6.548;2022-09-17T12:33:56;18.60;;;3.15;;
51915;SDS011;37942;53.218;6.548;2022-09-17T12:36:28;16.40;;;4.35;;
51915;SDS011;37942;53.218;6.548;2022-09-17T12:49:23;16.48;;;2.95;;
51915;SDS011;37942;53.218;6.548;2022-09-17T12:56:59;16.38;;;3.50;;
51915;SDS011;37942;53.218;6.548;2022-09-17T12:59:31;17.65;;;3.58;;
51915;SDS011;37942;53.218;6.548;2022-09-17T13:09:26;18.10;;;3.42;;
51915;SDS011;37942;53.218;6.548;2022-09-17T13:12:01;21.90;;;3.90;;
51915;SDS011;37942;53.218;6.548;2022-09-17T13:22:32;19.65;;;4.07;;
51915;SDS011;37942;53.218;6.548;2022-09-17T13:25:08;12.63;;;2.67;;
51915;SDS011;37942;53.218;6.548;2022-09-17T13:27:35;23.90;;;4.53;;
51915;SDS011;37942;53.218;6.548;2022-09-17T13:30:06;18.92;;;3.83;;
51915;SDS011;37942;53.218;6.548;2022-09-17T13:37:33;27.70;;;3.72;;
51915;SDS011;37942;53.218;6.548;2022-09-17T13:39:59;12.50;;;2.78;;
51915;SDS011;37942;53.218;6.548;2022-09-17T13:42:27;16.63;;;3.05;;
51915;SDS011;37942;53.218;6.548;2022-09-17T13:45:03;18.27;;;3.40;;
51915;SDS011;37942;53.218;6.548;2022-09-17T13:50:39;18.42;;;3.90;;
51915;SDS011;37942;53.218;6.548;2022-09-17T13:52:46;17.52;;;3.50;;
51915;SDS011;37942;53.218;6.548;2022-09-17T13:57:55;12.80;;;2.55;;
51915;SDS011;37942;53.218;6.548;2022-09-17T14:18:58;19.50;;;4.18;;
51915;SDS011;37942;53.218;6.548;2022-09-17T14:21:32;16.73;;;3.60;;
51915;SDS011;37942;53.218;6.548;2022-09-17T14:24:00;13.20;;;3.22;;
51915;SDS011;37942;53.218;6.548;2022-09-17T14:26:34;13.23;;;2.50;;
51915;SDS011;37942;53.218;6.548;2022-09-17T14:31:39;13.77;;;2.70;;
51915;SDS011;37942;53.218;6.548;2022-09-17T14:36:33;19.60;;;3.17;;
51915;SDS011;37942;53.218;6.548;2022-09-17T14:39:00;15.55;;;2.92;;
51915;SDS011;37942;53.218;6.548;2022-09-17T14:41:29;14.48;;;3.15;;
51915;SDS011;37942;53.218;6.548;2022-09-17T14:44:00;23.30;;;3.28;;
51915;SDS011;37942;53.218;6.548;2022-09-17T14:47:10;16.02;;;3.00;;
51915;SDS011;37942;53.218;6.548;2022-09-17T14:51:45;13.02;;;2.63;;
51915;SDS011;37942;53.218;6.548;2022-09-17T14:54:24;17.30;;;3.40;;
51915;SDS011;37942;53.218;6.548;2022-09-17T14:56:55;13.20;;;2.95;;
51915;SDS011;37942;53.218;6.548;2022-09-17T14:59:26;14.48;;;2.95;;
51915;SDS011;37942;53.218;6.548;2022-09-17T15:01:53;16.27;;;2.90;;
51915;SDS011;37942;53.218;6.548;2022-09-17T15:04:20;17.30;;;3.10;;
51915;SDS011;37942;53.218;6.548;2022-09-17T15:06:47;15.20;;;3.42;;
51915;SDS011;37942;53.218;6.548;2022-09-17T15:09:23;18.80;;;3.30;;
51915;SDS011;37942;53.218;6.548;2022-09-17T15:11:53;15.38;;;3.17;;
51915;SDS011;37942;53.218;6.548;2022-09-17T15:14:27;23.90;;;3.67;;
51915;SDS011;37942;53.218;6.548;2022-09-17T15:16:54;22.13;;;3.33;;
51915;SDS011;37942;53.218;6.548;2022-09-17T15:19:41;17.33;;;3.55;;
51915;SDS011;37942;53.218;6.548;2022-09-17T15:22:09;22.55;;;3.90;;
51915;SDS011;37942;53.218;6.548;2022-09-17T15:29:55;11.05;;;2.38;;
51915;SDS011;37942;53.218;6.548;2022-09-17T15:32:22;13.68;;;2.58;;
51915;SDS011;37942;53.218;6.548;2022-09-17T15:37:33;12.40;;;2.70;;
51915;SDS011;37942;53.218;6.548;2022-09-17T15:39:59;13.30;;;2.65;;
51915;SDS011;37942;53.218;6.548;2022-09-17T15:42:36;16.00;;;3.13;;
51915;SDS011;37942;53.218;6.548;2022-09-17T15:45:06;18.52;;;3.45;;
51915;SDS011;37942;53.218;6.548;2022-09-17T15:47:43;20.10;;;3.67;;
51915;SDS011;37942;53.218;6.548;2022-09-17T15:50:14;15.05;;;3.03;;
51915;SDS011;37942;53.218;6.548;2022-09-17T15:52:41;20.42;;;3.92;;
51915;SDS011;37942;53.218;6.548;2022-09-17T15:57:58;12.90;;;2.60;;
51915;SDS011;37942;53.218;6.548;2022-09-17T16:00:25;18.90;;;3.10;;
51915;SDS011;37942;53.218;6.548;2022-09-17T16:02:51;16.05;;;2.95;;
51915;SDS011;37942;53.218;6.548;2022-09-17T16:07:53;11.57;;;2.80;;
51915;SDS011;37942;53.218;6.548;2022-09-17T16:10:19;15.48;;;3.40;;
51915;SDS011;37942;53.218;6.548;2022-09-17T16:12:48;17.15;;;3.53;;
51915;SDS011;37942;53.218;6.548;2022-09-17T16:15:23;16.65;;;2.80;;
51915;SDS011;37942;53.218;6.548;2022-09-17T16:17:49;16.20;;;2.80;;
51915;SDS011;37942;53.218;6.548;2022-09-17T16:20:22;18.27;;;2.92;;
51915;SDS011;37942;53.218;6.548;2022-09-17T16:22:49;16.23;;;3.05;;
51915;SDS011;37942;53.218;6.548;2022-09-17T16:25:16;13.55;;;2.88;;
51915;SDS011;37942;53.218;6.548;2022-09-17T16:27:44;14.25;;;2.78;;
51915;SDS011;37942;53.218;6.548;2022-09-17T16:30:12;14.70;;;3.08;;
51915;SDS011;37942;53.218;6.548;2022-09-17T16:32:39;12.02;;;2.40;;
51915;SDS011;37942;53.218;6.548;2022-09-17T16:35:05;15.13;;;3.58;;
51915;SDS011;37942;53.218;6.548;2022-09-17T16:37:31;14.63;;;2.78;;
51915;SDS011;37942;53.218;6.548;2022-09-17T16:39:57;16.58;;;3.17;;
51915;SDS011;37942;53.218;6.548;2022-09-17T16:42:25;15.48;;;3.20;;
51915;SDS011;37942;53.218;6.548;2022-09-17T16:44:51;16.20;;;3.42;;
51915;SDS011;37942;53.218;6.548;2022-09-17T16:47:17;13.77;;;2.85;;
51915;SDS011;37942;53.218;6.548;2022-09-17T16:49:43;13.35;;;2.70;;
51915;SDS011;37942;53.218;6.548;2022-09-17T16:52:09;19.33;;;3.20;;
51915;SDS011;37942;53.218;6.548;2022-09-17T16:54:35;14.40;;;2.60;;
51915;SDS011;37942;53.218;6.548;2022-09-17T16:57:01;17.17;;;3.22;;
51915;SDS011;37942;53.218;6.548;2022-09-17T16:59:27;20.05;;;3.08;;
51915;SDS011;37942;53.218;6.548;2022-09-17T17:01:54;22.80;;;3.28;;
51915;SDS011;37942;53.218;6.548;2022-09-17T17:04:21;13.90;;;2.97;;
51915;SDS011;37942;53.218;6.548;2022-09-17T17:06:47;17.70;;;4.07;;
51915;SDS011;37942;53.218;6.548;2022-09-17T17:09:13;16.95;;;3.33;;
51915;SDS011;37942;53.218;6.548;2022-09-17T17:11:39;17.73;;;3.08;;
51915;SDS011;37942;53.218;6.548;2022-09-17T17:16:31;18.80;;;3.45;;
51915;SDS011;37942;53.218;6.548;2022-09-17T17:18:57;15.82;;;3.13;;
51915;SDS011;37942;53.218;6.548;2022-09-17T17:21:23;17.63;;;3.55;;
51915;SDS011;37942;53.218;6.548;2022-09-17T17:23:49;14.45;;;2.55;;
51915;SDS011;37942;53.218;6.548;2022-09-17T17:26:16;19.17;;;3.10;;
51915;SDS011;37942;53.218;6.548;2022-09-17T17:31:08;15.13;;;3.20;;
51915;SDS011;37942;53.218;6.548;2022-09-17T17:33:35;13.57;;;2.45;;
51915;SDS011;37942;53.218;6.548;2022-09-17T17:36:02;16.13;;;3.20;;
51915;SDS011;37942;53.218;6.548;2022-09-17T17:38:28;19.55;;;3.10;;
51915;SDS011;37942;53.218;6.548;2022-09-17T17:41:16;18.45;;;3.13;;
51915;SDS011;37942;53.218;6.548;2022-09-17T17:43:42;12.57;;;2.63;;
51915;SDS011;37942;53.218;6.548;2022-09-17T17:46:08;15.40;;;2.78;;
51915;SDS011;37942;53.218;6.548;2022-09-17T17:48:35;16.48;;;3.60;;
51915;SDS011;37942;53.218;6.548;2022-09-17T17:53:28;19.08;;;3.35;;
51915;SDS011;37942;53.218;6.548;2022-09-17T17:55:59;17.85;;;4.30;;
51915;SDS011;37942;53.218;6.548;2022-09-17T17:58:25;21.05;;;3.78;;
51915;SDS011;37942;53.218;6.548;2022-09-17T18:00:51;22.27;;;4.13;;
51915;SDS011;37942;53.218;6.548;2022-09-17T18:03:17;19.48;;;3.58;;
51915;SDS011;37942;53.218;6.548;2022-09-17T18:05:44;15.07;;;3.60;;
51915;SDS011;37942;53.218;6.548;2022-09-17T18:08:10;15.80;;;3.10;;
51915;SDS011;37942;53.218;6.548;2022-09-17T18:10:36;16.95;;;3.15;;
51915;SDS011;37942;53.218;6.548;2022-09-17T18:13:02;13.05;;;3.05;;
51915;SDS011;37942;53.218;6.548;2022-09-17T18:15:29;26.05;;;3.97;;
51915;SDS011;37942;53.218;6.548;2022-09-17T18:17:55;21.30;;;3.15;;
51915;SDS011;37942;53.218;6.548;2022-09-17T18:20:21;19.20;;;3.50;;
51915;SDS011;37942;53.218;6.548;2022-09-17T18:22:47;23.00;;;4.70;;
51915;SDS011;37942;53.218;6.548;2022-09-17T18:25:13;23.50;;;4.22;;
51915;SDS011;37942;53.218;6.548;2022-09-17T18:27:40;18.20;;;4.13;;
51915;SDS011;37942;53.218;6.548;2022-09-17T18:30:06;26.70;;;5.03;;